createdAt,value
2017-09-27T00:02:20.982Z,76.10
2017-09-27T00:04:49.289Z,74.40
2017-09-27T00:07:17.613Z,75.07
2017-09-27T00:09:45.919Z,82.77
2017-09-27T00:12:14.261Z,78.43
2017-09-27T00:14:42.576Z,69.00
2017-09-27T00:17:10.894Z,75.53
2017-09-27T00:19:39.228Z,82.20
2017-09-27T00:22:07.532Z,71.13
2017-09-27T00:24:35.854Z,77.93
2017-09-27T00:27:04.158Z,74.33
2017-09-27T00:29:33.245Z,74.90
2017-09-27T00:32:02.340Z,75.20
2017-09-27T00:34:31.445Z,73.93
2017-09-27T00:36:59.756Z,72.93
2017-09-27T00:39:28.074Z,75.30
2017-09-27T00:41:56.398Z,74.50
2017-09-27T00:44:24.715Z,80.93
2017-09-27T00:46:53.053Z,73.97
2017-09-27T00:49:21.370Z,73.30
2017-09-27T00:51:49.695Z,77.07
2017-09-27T00:54:18.002Z,78.57
2017-09-27T00:56:46.350Z,80.03
2017-09-27T00:59:14.666Z,75.97
2017-09-27T01:01:43.015Z,71.80
2017-09-27T01:04:11.334Z,81.63
2017-09-27T01:06:39.642Z,79.23
2017-09-27T01:09:08.767Z,86.30
2017-09-27T01:11:37.148Z,81.03
2017-09-27T01:14:05.475Z,75.87
2017-09-27T01:16:33.774Z,73.80
2017-09-27T01:19:02.886Z,70.23
2017-09-27T01:21:31.211Z,80.20
2017-09-27T01:23:59.518Z,82.77
2017-09-27T01:26:28.621Z,78.93
2017-09-27T01:28:57.699Z,85.23
2017-09-27T01:31:26.014Z,88.57
2017-09-27T01:33:54.320Z,89.37
2017-09-27T01:36:22.641Z,82.73
2017-09-27T01:38:51.726Z,88.17
2017-09-27T01:41:20.075Z,91.73
2017-09-27T01:43:48.377Z,90.50
2017-09-27T01:46:16.698Z,88.83
2017-09-27T01:48:45.025Z,91.67
2017-09-27T01:51:13.351Z,86.03
2017-09-27T01:53:41.681Z,82.07
2017-09-27T01:56:09.986Z,87.87
2017-09-27T01:58:39.069Z,91.63
2017-09-27T02:01:08.141Z,88.23
2017-09-27T02:03:36.467Z,101.43
2017-09-27T02:06:04.861Z,93.63
2017-09-27T02:08:33.198Z,100.40
2017-09-27T02:11:02.334Z,91.80
2017-09-27T02:13:30.647Z,91.30
2017-09-27T02:15:58.962Z,93.53
2017-09-27T02:18:27.281Z,95.47
2017-09-27T02:20:55.594Z,95.90
2017-09-27T02:23:23.901Z,107.13
2017-09-27T02:25:52.225Z,100.13
2017-09-27T02:28:20.534Z,111.20
2017-09-27T02:30:48.854Z,102.17
2017-09-27T02:33:17.232Z,99.20
2017-09-27T02:35:45.542Z,97.20
2017-09-27T02:38:13.873Z,101.37
2017-09-27T02:40:42.180Z,96.27
2017-09-27T02:43:10.491Z,113.70
2017-09-27T02:45:38.796Z,105.00
2017-09-27T02:48:07.143Z,111.20
2017-09-27T02:50:35.465Z,109.17
2017-09-27T02:53:03.781Z,106.83
2017-09-27T02:55:32.080Z,94.73
2017-09-27T02:58:00.431Z,110.50
2017-09-27T03:00:28.737Z,106.20
2017-09-27T03:02:57.037Z,110.00
2017-09-27T03:05:26.113Z,111.07
2017-09-27T03:07:55.197Z,116.97
2017-09-27T03:10:23.532Z,125.03
2017-09-27T03:12:51.842Z,126.83
2017-09-27T03:15:20.156Z,126.43
2017-09-27T03:17:49.280Z,124.03
2017-09-27T03:20:17.592Z,113.77
2017-09-27T03:22:45.900Z,119.57
2017-09-27T03:25:15.009Z,112.13
2017-09-27T03:27:43.326Z,113.97
2017-09-27T03:30:11.625Z,112.33
2017-09-27T03:32:39.941Z,121.43
2017-09-27T03:35:08.243Z,110.97
2017-09-27T03:37:36.556Z,109.17
2017-09-27T03:40:04.861Z,125.57
2017-09-27T03:42:33.953Z,125.73
2017-09-27T03:45:03.028Z,108.23
2017-09-27T03:47:31.358Z,104.30
2017-09-27T03:49:59.674Z,104.87
2017-09-27T03:52:27.996Z,113.00
2017-09-27T03:54:56.318Z,106.70
2017-09-27T03:57:24.637Z,107.70
2017-09-27T03:59:53.728Z,106.03
2017-09-27T04:02:22.813Z,116.23
2017-09-27T04:04:51.136Z,115.70
2017-09-27T04:07:19.437Z,94.07
2017-09-27T04:09:47.769Z,108.83
2017-09-27T04:12:16.836Z,112.07
2017-09-27T04:14:45.153Z,120.93
2017-09-27T04:17:13.468Z,107.90
2017-09-27T04:19:41.777Z,125.63
2017-09-27T04:22:10.857Z,121.23
2017-09-27T04:24:39.161Z,117.70
2017-09-27T04:27:08.245Z,127.03
2017-09-27T04:29:37.320Z,125.40
2017-09-27T04:32:05.657Z,124.70
2017-09-27T04:34:33.964Z,129.00
2017-09-27T04:37:02.270Z,132.10
2017-09-27T04:39:30.592Z,133.07
2017-09-27T04:41:58.924Z,148.67
2017-09-27T04:44:27.244Z,143.63
2017-09-27T04:46:55.549Z,125.70
2017-09-27T04:49:24.641Z,117.90
2017-09-27T04:51:52.972Z,129.80
2017-09-27T04:54:22.093Z,128.40
2017-09-27T04:56:50.401Z,128.07
2017-09-27T04:59:18.705Z,126.77
2017-09-27T05:01:47.785Z,128.63
2017-09-27T05:04:16.104Z,126.93
2017-09-27T05:06:44.424Z,130.03
2017-09-27T05:09:12.729Z,118.33
2017-09-27T05:11:41.811Z,121.10
2017-09-27T05:14:10.117Z,117.53
2017-09-27T05:16:39.223Z,130.00
2017-09-27T05:19:07.531Z,123.47
2017-09-27T05:21:35.845Z,129.93
2017-09-27T05:24:04.169Z,120.50
2017-09-27T05:26:32.470Z,116.10
2017-09-27T05:29:00.787Z,118.50
2017-09-27T05:31:29.860Z,130.40
2017-09-27T05:33:58.185Z,119.13
2017-09-27T05:36:26.482Z,127.10
2017-09-27T05:38:54.820Z,133.87
2017-09-27T05:41:23.898Z,122.40
2017-09-27T05:43:52.209Z,120.77
2017-09-27T05:46:20.517Z,126.90
2017-09-27T05:48:48.816Z,123.03
2017-09-27T05:51:17.137Z,118.17
2017-09-27T05:53:46.200Z,117.83
2017-09-27T05:56:14.526Z,135.33
2017-09-27T05:58:42.824Z,145.10
2017-09-27T06:01:11.797Z,120.27
2017-09-27T06:03:40.100Z,128.00
2017-09-27T06:06:08.397Z,96.87
2017-09-27T06:08:36.725Z,105.20
2017-09-27T06:11:05.046Z,106.50
2017-09-27T06:13:33.364Z,107.80
2017-09-27T06:16:01.674Z,106.03
2017-09-27T06:18:29.984Z,94.00
2017-09-27T06:20:58.289Z,94.00
2017-09-27T06:23:27.392Z,94.00
2017-09-27T06:25:56.517Z,88.40
2017-09-27T06:28:24.833Z,93.00
2017-09-27T06:30:53.161Z,104.23
2017-09-27T06:33:21.460Z,91.10
2017-09-27T06:35:49.777Z,93.30
2017-09-27T06:38:18.887Z,88.27
2017-09-27T06:40:47.957Z,98.57
2017-09-27T06:43:16.261Z,91.63
2017-09-27T06:45:45.338Z,89.23
2017-09-27T06:48:14.412Z,79.40
2017-09-27T06:50:42.741Z,93.43
2017-09-27T06:53:11.037Z,85.67
2017-09-27T06:55:39.340Z,99.37
2017-09-27T06:58:07.653Z,94.10
2017-09-27T07:00:36.713Z,86.47
2017-09-27T07:03:05.037Z,92.47
2017-09-27T07:05:33.354Z,86.10
2017-09-27T07:08:01.661Z,95.47
2017-09-27T07:10:29.981Z,82.77
2017-09-27T07:12:58.322Z,83.83
2017-09-27T07:15:26.636Z,95.20
2017-09-27T07:17:54.933Z,91.23
2017-09-27T07:20:23.244Z,87.40
2017-09-27T07:22:51.548Z,79.20
2017-09-27T07:25:20.620Z,86.13
2017-09-27T07:27:48.925Z,86.63
2017-09-27T07:30:17.236Z,82.63
2017-09-27T07:32:45.544Z,87.27
2017-09-27T07:35:13.883Z,89.13
2017-09-27T07:37:42.202Z,93.77
2017-09-27T07:40:10.513Z,80.33
2017-09-27T07:42:38.825Z,84.50
2017-09-27T07:45:07.141Z,81.67
2017-09-27T07:47:36.254Z,92.13
2017-09-27T07:50:05.322Z,81.23
2017-09-27T07:52:33.646Z,85.43
2017-09-27T07:55:01.942Z,86.07
2017-09-27T07:57:30.272Z,85.03
2017-09-27T07:59:59.355Z,90.70
2017-09-27T08:02:27.656Z,83.23
2017-09-27T08:04:56.735Z,76.70
2017-09-27T08:07:25.047Z,85.87
2017-09-27T08:09:53.360Z,82.63
2017-09-27T08:12:21.665Z,83.33
2017-09-27T08:14:49.978Z,76.60
2017-09-27T08:17:18.280Z,85.27
2017-09-27T08:19:46.615Z,90.53
2017-09-27T08:22:15.693Z,77.97
2017-09-27T08:24:44.002Z,74.27
2017-09-27T08:27:12.312Z,82.30
2017-09-27T08:29:40.621Z,77.40
2017-09-27T08:32:09.784Z,68.13
2017-09-27T08:34:38.099Z,69.93
2017-09-27T08:37:06.506Z,73.30
2017-09-27T08:39:34.816Z,72.00
2017-09-27T08:42:03.127Z,81.97
2017-09-27T08:44:31.469Z,77.43
2017-09-27T08:46:59.808Z,71.17
2017-09-27T08:49:28.878Z,75.20
2017-09-27T08:51:57.192Z,67.73
2017-09-27T08:54:25.492Z,73.03
2017-09-27T08:56:53.849Z,74.07
2017-09-27T08:59:22.157Z,72.43
2017-09-27T09:01:50.476Z,73.77
2017-09-27T09:04:19.555Z,71.87
2017-09-27T09:06:47.871Z,70.03
2017-09-27T09:09:16.209Z,70.47
2017-09-27T09:11:44.517Z,73.33
2017-09-27T09:14:13.605Z,80.23
2017-09-27T09:16:42.684Z,72.20
2017-09-27T09:19:10.993Z,77.77
2017-09-27T09:21:39.334Z,79.10
2017-09-27T09:24:07.628Z,73.83
2017-09-27T09:26:36.702Z,75.40
2017-09-27T09:29:05.012Z,69.10
2017-09-27T09:31:33.314Z,69.90
2017-09-27T09:34:01.650Z,64.70
2017-09-27T09:36:30.726Z,59.63
2017-09-27T09:38:59.033Z,60.97
2017-09-27T09:41:28.118Z,63.93
2017-09-27T09:43:57.193Z,60.80
2017-09-27T09:46:25.525Z,50.93
2017-09-27T09:48:53.829Z,56.73
2017-09-27T09:51:22.133Z,53.30
2017-09-27T09:53:50.440Z,63.93
2017-09-27T09:56:18.741Z,50.97
2017-09-27T09:58:47.068Z,49.83
2017-09-27T10:01:15.382Z,53.73
2017-09-27T10:03:43.690Z,51.87
2017-09-27T10:06:12.005Z,44.93
2017-09-27T10:08:40.301Z,46.37
2017-09-27T10:11:09.396Z,46.17
2017-09-27T10:13:37.697Z,43.50
2017-09-27T10:16:06.008Z,42.77
2017-09-27T10:18:34.320Z,42.47
2017-09-27T10:21:03.393Z,47.13
2017-09-27T10:23:31.724Z,47.97
2017-09-27T10:26:00.022Z,50.00
2017-09-27T10:28:28.343Z,49.03
2017-09-27T10:30:57.428Z,48.43
2017-09-27T10:33:25.739Z,46.53
2017-09-27T10:35:54.081Z,46.97
2017-09-27T10:38:22.387Z,46.33
2017-09-27T10:40:50.685Z,48.97
2017-09-27T10:43:18.998Z,48.00
2017-09-27T10:45:47.304Z,43.97
2017-09-27T10:48:16.468Z,43.43
2017-09-27T10:50:44.774Z,46.17
2017-09-27T10:53:13.840Z,45.87
2017-09-27T10:55:42.147Z,45.70
2017-09-27T10:58:11.221Z,47.83
2017-09-27T11:00:39.557Z,46.00
2017-09-27T11:03:07.863Z,49.80
2017-09-27T11:05:36.172Z,52.30
2017-09-27T11:08:05.258Z,60.23
2017-09-27T11:10:33.580Z,56.33
2017-09-27T11:13:01.928Z,51.93
2017-09-27T11:15:31.014Z,54.33
2017-09-27T11:18:00.102Z,53.27
2017-09-27T11:20:28.419Z,56.70
2017-09-27T11:22:56.716Z,57.43
2017-09-27T11:25:25.050Z,51.23
2017-09-27T11:27:54.116Z,51.80
2017-09-27T11:30:22.421Z,48.83
2017-09-27T11:32:51.506Z,47.23
2017-09-27T11:35:20.569Z,48.43
2017-09-27T11:37:48.901Z,48.40
2017-09-27T11:40:17.207Z,49.10
2017-09-27T11:42:45.513Z,51.80
2017-09-27T11:45:13.825Z,48.90
2017-09-27T11:47:42.894Z,53.13
2017-09-27T11:50:11.229Z,48.33
2017-09-27T11:52:39.528Z,42.33
2017-09-27T11:55:07.824Z,52.10
2017-09-27T11:57:36.134Z,43.57
2017-09-27T12:00:04.452Z,50.47
2017-09-27T12:02:32.785Z,46.17
2017-09-27T12:05:01.851Z,46.63
2017-09-27T12:07:30.161Z,47.87
2017-09-27T12:09:58.482Z,51.60
2017-09-27T12:12:26.780Z,54.13
2017-09-27T12:14:55.114Z,50.23
2017-09-27T12:17:23.418Z,60.17
2017-09-27T12:19:51.722Z,57.70
2017-09-27T12:22:20.033Z,54.10
2017-09-27T12:24:48.339Z,60.53
2017-09-27T12:27:16.669Z,65.60
2017-09-27T12:29:45.744Z,60.13
2017-09-27T12:32:14.072Z,56.67
2017-09-27T12:34:42.401Z,61.87
2017-09-27T12:37:10.708Z,62.37
2017-09-27T12:39:39.809Z,59.10
2017-09-27T12:42:08.126Z,64.07
2017-09-27T12:44:36.423Z,61.50
2017-09-27T12:47:04.812Z,56.20
2017-09-27T12:49:33.117Z,64.70
2017-09-27T12:52:01.456Z,54.20
2017-09-27T12:54:29.848Z,54.60
2017-09-27T12:56:58.271Z,63.23
2017-09-27T12:59:26.580Z,58.37
2017-09-27T13:01:54.880Z,56.73
2017-09-27T13:04:23.216Z,52.00
2017-09-27T13:06:51.517Z,51.93
2017-09-27T13:09:19.822Z,50.53
2017-09-27T13:11:48.911Z,48.37
2017-09-27T13:14:17.228Z,51.70
2017-09-27T13:16:45.561Z,52.33
2017-09-27T13:19:13.870Z,44.57
2017-09-27T13:21:42.172Z,45.43
2017-09-27T13:24:10.478Z,51.13
2017-09-27T13:26:38.772Z,45.27
2017-09-27T13:29:07.100Z,43.57
2017-09-27T13:31:35.410Z,49.80
2017-09-27T13:34:03.718Z,47.57
2017-09-27T13:36:32.793Z,46.63
2017-09-27T13:39:01.094Z,47.23
2017-09-27T13:41:29.424Z,40.07
2017-09-27T13:43:57.724Z,42.67
2017-09-27T13:46:26.035Z,49.53
2017-09-27T13:48:54.353Z,44.43
2017-09-27T13:51:22.673Z,47.90
2017-09-27T13:53:51.790Z,46.73
2017-09-27T13:56:20.096Z,46.97
2017-09-27T13:58:48.395Z,48.40
2017-09-27T14:01:16.706Z,47.23
2017-09-27T14:03:45.015Z,48.83
2017-09-27T14:06:13.357Z,47.37
2017-09-27T14:08:42.434Z,48.90
2017-09-27T14:11:10.740Z,47.80
2017-09-27T14:13:39.048Z,49.03
2017-09-27T14:16:07.346Z,46.80
2017-09-27T14:18:35.688Z,48.07
2017-09-27T14:21:04.000Z,53.83
2017-09-27T14:23:32.301Z,53.57
2017-09-27T14:26:01.385Z,57.50
2017-09-27T14:28:29.681Z,55.60
2017-09-27T14:30:58.783Z,49.73
2017-09-27T14:33:27.849Z,52.43
2017-09-27T14:35:56.172Z,54.17
2017-09-27T14:38:24.491Z,54.33
2017-09-27T14:40:52.789Z,52.47
2017-09-27T14:43:21.137Z,49.77
2017-09-27T14:45:49.437Z,57.30
2017-09-27T14:48:17.738Z,56.07
2017-09-27T14:50:46.824Z,52.20
2017-09-27T14:53:15.904Z,61.33
2017-09-27T14:55:44.237Z,55.20
2017-09-27T14:58:12.547Z,49.27
2017-09-27T15:00:40.864Z,54.53
2017-09-27T15:03:09.945Z,57.27
2017-09-27T15:05:39.015Z,51.97
2017-09-27T15:08:07.351Z,51.33
2017-09-27T15:10:35.659Z,60.63
2017-09-27T15:13:03.973Z,59.20
2017-09-27T15:15:33.056Z,51.67
2017-09-27T15:18:01.379Z,53.17
2017-09-27T15:20:29.711Z,59.27
2017-09-27T15:22:58.031Z,52.80
2017-09-27T15:25:26.422Z,60.40
2017-09-27T15:27:54.750Z,57.13
2017-09-27T15:30:23.064Z,53.53
2017-09-27T15:32:51.394Z,62.33
2017-09-27T15:35:19.712Z,53.97
2017-09-27T15:37:48.782Z,62.60
2017-09-27T15:40:17.878Z,62.07
2017-09-27T15:42:46.949Z,60.07
2017-09-27T15:45:15.281Z,61.40
2017-09-27T15:47:43.582Z,59.33
2017-09-27T15:50:11.894Z,62.80
2017-09-27T15:52:40.213Z,64.70
2017-09-27T15:55:08.529Z,60.57
2017-09-27T15:57:36.856Z,64.73
2017-09-27T16:00:05.925Z,67.90
2017-09-27T16:02:34.233Z,64.87
2017-09-27T16:05:02.561Z,74.60
2017-09-27T16:07:30.871Z,62.70
2017-09-27T16:09:59.972Z,81.70
2017-09-27T16:12:28.273Z,65.50
2017-09-27T16:14:56.579Z,65.77
2017-09-27T16:17:24.914Z,73.03
2017-09-27T16:19:53.977Z,67.90
2017-09-27T16:22:22.314Z,75.03
2017-09-27T16:24:50.622Z,73.33
2017-09-27T16:27:18.929Z,69.97
2017-09-27T16:29:48.005Z,74.37
2017-09-27T16:32:16.302Z,73.20
2017-09-27T16:34:45.377Z,76.03
2017-09-27T16:37:13.700Z,75.63
2017-09-27T16:39:42.033Z,73.77
2017-09-27T16:42:10.342Z,82.63
2017-09-27T16:44:38.645Z,79.07
2017-09-27T16:47:06.971Z,82.80
2017-09-27T16:49:35.293Z,82.20
2017-09-27T16:52:03.605Z,81.40
2017-09-27T16:54:31.926Z,71.60
2017-09-27T16:57:00.269Z,74.00
2017-09-27T16:59:28.590Z,69.57
2017-09-27T17:01:56.897Z,70.47
2017-09-27T17:04:25.213Z,83.47
2017-09-27T17:06:53.522Z,81.73
2017-09-27T17:09:21.836Z,81.07
2017-09-27T17:11:50.162Z,82.60
2017-09-27T17:14:19.265Z,76.90
2017-09-27T17:16:47.576Z,88.30
2017-09-27T17:19:15.878Z,82.70
2017-09-27T17:21:44.198Z,71.07
2017-09-27T17:24:12.505Z,81.13
2017-09-27T17:26:40.812Z,91.00
2017-09-27T17:29:09.122Z,74.73
2017-09-27T17:31:38.221Z,75.10
2017-09-27T17:34:06.550Z,77.93
2017-09-27T17:36:34.867Z,78.03
2017-09-27T17:39:03.946Z,85.00
2017-09-27T17:41:32.257Z,88.50
2017-09-27T17:44:00.590Z,86.37
2017-09-27T17:46:28.908Z,82.63
2017-09-27T17:48:57.242Z,78.37
2017-09-27T17:51:25.584Z,75.27
2017-09-27T17:53:53.889Z,78.77
2017-09-27T17:56:22.238Z,81.50
2017-09-27T17:58:50.580Z,90.80
2017-09-27T18:01:19.685Z,80.27
2017-09-27T18:03:48.759Z,87.17
2017-09-27T18:06:22.533Z,97.20
2017-09-27T18:08:57.147Z,94.20
2017-09-27T18:11:27.160Z,101.93
2017-09-27T18:13:55.801Z,99.90
2017-09-27T18:19:29.716Z,69.43
2017-09-27T18:21:58.055Z,76.67
2017-09-27T18:24:26.368Z,72.77
2017-09-27T18:26:54.691Z,75.43
2017-09-27T18:29:23.011Z,78.17
2017-09-27T18:31:51.330Z,78.30
2017-09-27T18:34:20.409Z,81.33
2017-09-27T18:36:49.514Z,92.23
2017-09-27T18:39:18.623Z,80.73
2017-09-27T18:41:46.962Z,69.60
2017-09-27T18:44:15.265Z,84.97
2017-09-27T18:46:44.371Z,92.50
2017-09-27T18:49:12.712Z,94.60
2017-09-27T18:51:41.025Z,83.80
2017-09-27T18:54:10.130Z,73.37
2017-09-27T18:56:38.477Z,81.30
2017-09-27T18:59:07.562Z,76.93
2017-09-27T19:01:35.893Z,81.30
2017-09-27T19:04:04.214Z,68.93
2017-09-27T19:06:32.525Z,70.90
2017-09-27T19:09:01.650Z,70.90
2017-09-27T19:11:29.958Z,72.07
2017-09-27T19:13:58.296Z,69.80
2017-09-27T19:16:26.613Z,62.70
2017-09-27T19:18:54.921Z,62.47
2017-09-27T19:21:24.011Z,62.53
2017-09-27T19:23:53.101Z,71.83
2017-09-27T19:26:21.417Z,68.17
2017-09-27T19:28:49.765Z,76.50
2017-09-27T19:31:18.899Z,64.10
2017-09-27T19:33:47.227Z,70.30
2017-09-27T19:36:15.546Z,74.80
2017-09-27T19:38:43.866Z,65.50
2017-09-27T19:41:12.266Z,63.90
2017-09-27T19:43:40.621Z,66.30
2017-09-27T19:46:08.942Z,76.13
2017-09-27T19:48:38.067Z,64.47
2017-09-27T19:51:06.431Z,68.93
2017-09-27T19:53:34.769Z,71.37
2017-09-27T19:56:03.078Z,68.23
2017-09-27T19:58:31.384Z,71.53
2017-09-27T20:00:59.699Z,67.90
2017-09-27T20:03:28.025Z,64.07
2017-09-27T20:05:56.384Z,68.17
2017-09-27T20:08:24.694Z,78.23
2017-09-27T20:10:53.030Z,68.97
2017-09-27T20:13:22.109Z,70.73
2017-09-27T20:15:50.457Z,76.77
2017-09-27T20:18:18.787Z,73.93
2017-09-27T20:20:47.853Z,76.00
2017-09-27T20:23:16.197Z,76.90
2017-09-27T20:25:44.510Z,78.63
2017-09-27T20:28:12.821Z,81.60
2017-09-27T20:30:41.137Z,90.97
2017-09-27T20:33:09.441Z,75.87
2017-09-27T20:35:37.759Z,69.83
2017-09-27T20:38:06.069Z,77.00
2017-09-27T20:40:35.166Z,84.87
2017-09-27T20:43:03.472Z,83.30
2017-09-27T20:45:31.777Z,73.47
2017-09-27T20:48:00.098Z,72.17
2017-09-27T20:50:28.400Z,70.47
2017-09-27T20:52:56.725Z,88.53
2017-09-27T20:55:25.048Z,70.20
2017-09-27T20:57:53.390Z,76.57
2017-09-27T21:00:21.698Z,74.73
2017-09-27T21:02:50.936Z,83.27
2017-09-27T21:05:19.259Z,83.43
2017-09-27T21:07:47.568Z,84.37
2017-09-27T21:10:15.889Z,77.77
2017-09-27T21:12:44.197Z,81.07
2017-09-27T21:15:13.302Z,88.37
2017-09-27T21:17:41.611Z,85.73
2017-09-27T21:20:10.690Z,79.60
2017-09-27T21:22:39.000Z,84.27
2017-09-27T21:25:08.070Z,92.67
2017-09-27T21:27:37.177Z,81.47
2017-09-27T21:30:06.262Z,93.33
2017-09-27T21:32:35.328Z,74.07
2017-09-27T21:35:03.647Z,78.67
2017-09-27T21:37:31.948Z,79.63
2017-09-27T21:40:00.285Z,83.33
2017-09-27T21:42:29.365Z,79.77
2017-09-27T21:44:57.672Z,84.23
2017-09-27T21:47:26.767Z,87.23
2017-09-27T21:49:55.845Z,88.70
2017-09-27T21:52:24.180Z,77.83
2017-09-27T21:54:52.487Z,76.27
2017-09-27T21:57:20.799Z,72.90
2017-09-27T21:59:49.117Z,88.10
2017-09-27T22:02:17.453Z,92.63
2017-09-27T22:04:46.550Z,93.83
2017-09-27T22:07:15.645Z,81.63
2017-09-27T22:09:43.953Z,93.57
2017-09-27T22:12:12.284Z,84.10
2017-09-27T22:14:41.353Z,83.77
2017-09-27T22:17:09.696Z,88.47
2017-09-27T22:19:37.992Z,85.27
2017-09-27T22:22:06.301Z,88.07
2017-09-27T22:24:34.618Z,74.23
2017-09-27T22:27:02.930Z,75.00
2017-09-27T22:29:31.284Z,65.70
2017-09-27T22:31:59.592Z,81.30
2017-09-27T22:34:27.889Z,74.93
2017-09-27T22:36:56.204Z,84.00
2017-09-27T22:39:24.511Z,65.97
2017-09-27T22:41:52.857Z,79.07
2017-09-27T22:46:55.636Z,76.43
2017-09-27T22:49:24.763Z,83.43
2017-09-27T22:51:53.084Z,76.90
2017-09-27T22:54:21.414Z,72.57
2017-09-27T22:56:49.721Z,76.93
2017-09-27T22:59:18.071Z,76.60
2017-09-27T23:01:46.390Z,78.17
2017-09-27T23:04:14.710Z,81.60
2017-09-27T23:06:43.024Z,74.50
2017-09-27T23:09:11.330Z,82.13
2017-09-27T23:11:39.680Z,73.60
2017-09-27T23:14:08.753Z,83.50
2017-09-27T23:16:37.069Z,83.70
2017-09-27T23:19:05.402Z,89.67
2017-09-27T23:21:33.714Z,87.80
2017-09-27T23:24:02.050Z,77.23
2017-09-27T23:26:30.356Z,81.43
2017-09-27T23:28:58.662Z,85.73
2017-09-27T23:31:26.971Z,92.37
2017-09-27T23:33:56.081Z,80.60
2017-09-27T23:36:24.429Z,81.63
2017-09-27T23:38:53.516Z,96.80
2017-09-27T23:41:21.827Z,91.87
2017-09-27T23:43:50.142Z,91.23
2017-09-27T23:46:18.453Z,84.70
2017-09-27T23:48:46.791Z,82.63
2017-09-27T23:51:15.101Z,97.90
2017-09-27T23:53:43.429Z,100.40
2017-09-27T23:56:11.746Z,102.10
2017-09-27T23:58:40.051Z,89.53
